Time;durP1;ratioP1;P1;durP2;ratioP2;P2;SDS_P1;SDS_P2;PMS_P1;PMS_P2;Temp;Humidity;BMP_temperature;BMP_pressure;BME280_temperature;BME280_humidity;BME280_pressure;Samples;Min_cycle;Max_cycle;Signal;HPM_P1;HPM_P2
2022/04/20 00:00:28;;;;;;;36.87;16.00;;;;;;;3.80;77.59;94514.13;5014138;28;20322;-88
2022/04/20 00:02:54;;;;;;;41.13;17.30;;;;;;;3.48;77.87;94477.22;5013900;28;20183;-90
2022/04/20 00:05:19;;;;;;;32.03;16.27;;;;;;;3.54;78.08;94487.75;5014079;28;20282;-88
2022/04/20 00:07:45;;;;;;;30.80;12.70;;;;;;;3.51;78.52;94485.50;5031760;28;20660;-89
2022/04/20 00:10:10;;;;;;;29.03;12.87;;;;;;;3.52;77.85;94479.31;5031741;28;20234;-88
2022/04/20 00:12:36;;;;;;;23.63;12.67;;;;;;;3.90;78.51;94539.91;5031938;28;20156;-87
2022/04/20 00:15:02;;;;;;;36.50;15.37;;;;;;;3.39;78.33;94459.09;4998496;28;20646;-90
2022/04/20 00:17:28;;;;;;;33.93;14.47;;;;;;;3.28;78.47;94451.72;5013848;28;20176;-87
2022/04/20 00:19:53;;;;;;;27.87;13.40;;;;;;;3.33;78.17;94459.00;5031682;28;20226;-89
2022/04/20 00:22:19;;;;;;;24.60;12.53;;;;;;;3.80;78.42;94547.19;5032014;28;20156;-87
2022/04/20 00:24:44;;;;;;;26.40;11.80;;;;;;;3.45;78.74;94503.59;5031452;28;20943;-89
2022/04/20 00:27:10;;;;;;;25.93;13.47;;;;;;;3.22;79.18;94486.22;5031738;28;20160;-89
2022/04/20 00:29:35;;;;;;;43.93;16.47;;;;;;;3.01;79.73;94452.28;5031528;28;20168;-89
2022/04/20 00:32:01;;;;;;;38.33;14.80;;;;;;;3.33;79.21;94491.00;5014533;28;20559;-88
2022/04/20 00:34:26;;;;;;;37.70;14.33;;;;;;;3.43;79.67;94495.97;5032890;28;20184;-88
2022/04/20 00:36:53;;;;;;;40.57;16.23;;;;;;;3.71;79.08;94522.22;5035246;28;20614;-88
2022/04/20 00:39:20;;;;;;;29.87;14.17;;;;;;;3.42;78.63;94487.34;5034848;28;20163;-86
2022/04/20 00:41:45;;;;;;;30.70;14.90;;;;;;;3.42;78.65;94476.13;5034849;28;20184;-88
2022/04/20 00:44:12;;;;;;;33.03;14.03;;;;;;;3.57;78.81;94504.78;5017063;28;20252;-89
2022/04/20 00:46:38;;;;;;;27.97;12.40;;;;;;;3.73;78.79;94538.47;5035075;28;20175;-86
2022/04/20 00:49:06;;;;;;;27.70;13.03;;;;;;;3.19;79.06;94472.78;5017594;28;20160;-89
2022/04/20 00:51:32;;;;;;;29.77;12.80;;;;;;;3.58;79.25;94542.81;5034818;28;20175;-88
2022/04/20 00:53:59;;;;;;;26.20;13.33;;;;;;;3.39;79.15;94503.31;5005718;28;20262;-88
2022/04/20 00:56:24;;;;;;;31.20;17.07;;;;;;;3.23;78.84;94489.63;5024417;28;20721;-89
2022/04/20 00:58:51;;;;;;;47.37;28.23;;;;;;;3.34;79.19;94510.03;5022065;28;20171;-89
2022/04/20 01:01:16;;;;;;;51.27;29.63;;;;;;;3.28;79.07;94492.53;5005388;28;20172;-86
2022/04/20 01:03:43;;;;;;;53.30;29.90;;;;;;;3.54;79.31;94536.38;5015602;28;20234;-89
2022/04/20 01:06:09;;;;;;;55.23;31.77;;;;;;;3.27;78.91;94494.31;5014872;28;20188;-87
2022/04/20 01:08:35;;;;;;;58.97;34.63;;;;;;;3.09;79.00;94465.22;5014476;28;20281;-87
2022/04/20 01:11:01;;;;;;;67.70;38.67;;;;;;;3.09;79.27;94475.59;5014831;28;20573;-87
2022/04/20 01:13:28;;;;;;;68.80;38.63;;;;;;;3.47;79.22;94530.22;5014739;28;20545;-88
2022/04/20 01:15:53;;;;;;;66.60;38.10;;;;;;;3.52;79.54;94538.34;5014725;28;20615;-90
2022/04/20 01:18:19;;;;;;;69.30;38.03;;;;;;;3.19;79.12;94475.38;5014386;28;20176;-86
2022/04/20 01:20:45;;;;;;;72.20;41.30;;;;;;;3.03;78.67;94452.88;4996784;28;20906;-87
2022/04/20 01:23:11;;;;;;;67.93;40.40;;;;;;;3.34;78.86;94502.22;4996762;28;20180;-87
2022/04/20 01:25:37;;;;;;;74.13;39.23;;;;;;;3.10;78.56;94472.03;5014523;28;20263;-87
2022/04/20 01:28:05;;;;;;;56.70;28.87;;;;;;;3.47;78.63;94541.44;5014185;28;20149;-88
2022/04/20 01:30:31;;;;;;;69.53;28.67;;;;;;;3.14;78.77;94499.28;5014676;28;20668;-87
2022/04/20 01:32:57;;;;;;;63.73;34.47;;;;;;;3.33;79.39;94530.03;4996493;28;20255;-89
2022/04/20 01:35:23;;;;;;;57.70;32.03;;;;;;;3.11;78.43;94494.44;5014033;28;20196;-87
2022/04/20 01:37:52;;;;;;;63.13;32.83;;;;;;;3.07;78.82;94490.56;5019972;28;20214;-87
2022/04/20 01:40:18;;;;;;;68.23;33.43;;;;;;;3.24;78.67;94528.47;5002364;28;20183;-87
2022/04/20 01:42:44;;;;;;;83.03;32.47;;;;;;;2.98;78.64;94483.81;5006798;28;20263;-87
2022/04/20 01:45:09;;;;;;;61.87;34.43;;;;;;;2.98;79.35;94496.81;5025927;28;20760;-87
2022/04/20 01:47:35;;;;;;;73.70;41.07;;;;;;;3.19;79.01;94527.38;5033175;28;20226;-88
2022/04/20 01:50:01;;;;;;;74.73;43.57;;;;;;;2.70;79.49;94459.31;5015897;28;20247;-90
2022/04/20 01:52:27;;;;;;;90.63;50.13;;;;;;;2.92;79.13;94484.50;5016397;28;20164;-90
2022/04/20 01:54:52;;;;;;;83.50;48.03;;;;;;;2.91;79.06;94485.50;5016158;28;20175;-93
2022/04/20 01:57:18;;;;;;;99.37;52.83;;;;;;;2.75;79.40;94455.22;5015726;28;20637;-87
2022/04/20 01:59:43;;;;;;;83.27;50.33;;;;;;;2.67;78.58;94446.69;5015709;28;20251;-87
2022/04/20 02:04:53;;;;;;;70.87;40.43;;;;;;;2.89;80.11;94514.25;5034925;28;20275;-88
2022/04/20 02:07:18;;;;;;;68.27;39.63;;;;;;;2.72;80.14;94476.34;5016068;28;20196;-89
2022/04/20 02:09:44;;;;;;;63.37;31.13;;;;;;;2.82;80.33;94517.72;5032870;28;21038;-89
2022/04/20 02:12:09;;;;;;;50.07;29.27;;;;;;;2.69;80.10;94484.47;5015486;28;20187;-86
2022/04/20 02:14:35;;;;;;;26.43;15.43;;;;;;;2.73;80.67;94487.56;5033120;28;20164;-88
2022/04/20 02:17:01;;;;;;;41.23;21.13;;;;;;;2.19;81.30;94389.66;5015510;28;20621;-88
2022/04/20 02:19:26;;;;;;;37.73;21.40;;;;;;;2.60;81.59;94449.94;5006564;28;20217;-87
2022/04/20 02:21:52;;;;;;;47.17;27.83;;;;;;;2.86;80.52;94500.78;5023797;28;20179;-87
2022/04/20 02:24:18;;;;;;;47.87;28.57;;;;;;;3.07;80.69;94526.16;5023788;28;20180;-87
2022/04/20 02:26:43;;;;;;;41.77;25.73;;;;;;;3.14;80.23;94527.88;5009403;28;20704;-88
2022/04/20 02:29:09;;;;;;;38.57;24.00;;;;;;;2.84;80.09;94477.59;5033101;28;20160;-88
2022/04/20 02:31:34;;;;;;;38.17;21.30;;;;;;;2.83;80.22;94477.75;5032759;28;20172;-88
2022/04/20 02:34:00;;;;;;;39.87;24.37;;;;;;;2.70;80.49;94459.31;5033061;28;20164;-87
2022/04/20 02:36:26;;;;;;;44.87;25.33;;;;;;;3.24;80.11;94527.66;5032954;28;20167;-88
2022/04/20 02:38:52;;;;;;;33.70;22.23;;;;;;;2.83;79.71;94465.56;5032905;28;20175;-88
2022/04/20 02:41:18;;;;;;;31.87;17.23;;;;;;;3.07;80.76;94513.16;5014954;28;20630;-89
2022/04/20 02:43:44;;;;;;;27.90;16.70;;;;;;;2.68;80.96;94459.50;5032663;28;20164;-89
2022/04/20 02:46:11;;;;;;;36.23;19.07;;;;;;;3.13;81.51;94531.47;5014686;28;20266;-89
2022/04/20 02:48:36;;;;;;;27.70;16.37;;;;;;;2.57;80.91;94442.50;5032681;28;20168;-88
2022/04/20 02:51:02;;;;;;;30.03;16.03;;;;;;;2.84;80.63;94476.78;5032809;28;20164;-89
2022/04/20 02:53:28;;;;;;;26.83;16.03;;;;;;;3.04;80.93;94509.91;5032579;28;20535;-88
2022/04/20 02:55:53;;;;;;;29.33;14.30;;;;;;;2.58;81.02;94441.53;5033010;28;20156;-91
2022/04/20 02:58:19;;;;;;;26.07;14.83;;;;;;;3.10;80.94;94516.22;5014458;28;20171;-89
2022/04/20 03:00:45;;;;;;;23.40;13.33;;;;;;;3.21;80.75;94534.00;5014653;28;20203;-90
2022/04/20 03:03:12;;;;;;;27.80;14.90;;;;;;;2.83;81.26;94467.34;5020912;28;20582;-89
2022/04/20 03:05:38;;;;;;;24.00;14.60;;;;;;;2.96;81.32;94483.97;5004505;28;20219;-90
2022/04/20 03:08:04;;;;;;;26.20;15.13;;;;;;;2.92;80.66;94471.50;5019583;28;20184;-88
2022/04/20 03:10:29;;;;;;;30.73;17.30;;;;;;;2.87;81.15;94463.41;5020526;28;20172;-90
2022/04/20 03:12:55;;;;;;;39.27;21.93;;;;;;;2.92;80.73;94464.53;5016977;28;20557;-88
2022/04/20 03:15:20;;;;;;;67.33;33.37;;;;;;;2.97;80.67;94471.78;5011009;28;20182;-89
2022/04/20 03:17:46;;;;;;;73.27;36.67;;;;;;;3.06;80.59;94491.53;5032368;28;20621;-89
2022/04/20 03:20:11;;;;;;;78.80;36.93;;;;;;;3.26;81.12;94554.31;5032441;28;20257;-89
2022/04/20 03:22:38;;;;;;;66.43;34.60;;;;;;;3.31;82.19;94550.19;5008039;28;20179;-89
2022/04/20 03:25:04;;;;;;;65.33;33.43;;;;;;;2.92;81.75;94471.50;5021028;28;20193;-89
2022/04/20 03:27:29;;;;;;;49.60;26.30;;;;;;;3.31;81.32;94520.78;5019154;28;20168;-88
2022/04/20 03:29:55;;;;;;;45.10;23.50;;;;;;;3.22;81.39;94490.59;5019932;28;20180;-89
2022/04/20 03:32:21;;;;;;;46.77;25.00;;;;;;;3.19;81.10;94480.56;5000670;28;20327;-89
2022/04/20 03:34:46;;;;;;;20.57;11.70;;;;;;;3.19;81.26;94504.78;5005620;28;20175;-88
2022/04/20 03:37:12;;;;;;;30.07;17.17;;;;;;;3.32;82.09;94536.22;5023378;28;20179;-90
2022/04/20 03:39:38;;;;;;;33.07;17.03;;;;;;;3.36;81.73;94534.88;5024796;28;20258;-89
2022/04/20 03:42:04;;;;;;;28.30;15.60;;;;;;;3.39;82.15;94512.91;5032172;28;20183;-89
2022/04/20 03:44:31;;;;;;;26.30;15.10;;;;;;;3.15;81.79;94479.28;5032110;28;20164;-88
2022/04/20 03:46:56;;;;;;;21.23;12.37;;;;;;;3.15;81.58;94480.09;5009573;28;20184;-89
2022/04/20 03:49:22;;;;;;;30.87;16.90;;;;;;;3.29;82.25;94491.53;5018451;28;20180;-91
2022/04/20 03:51:50;;;;;;;34.73;21.40;;;;;;;3.30;82.21;94493.13;5009000;28;20190;-91
2022/04/20 03:54:16;;;;;;;27.70;15.87;;;;;;;3.00;81.68;94435.88;5022181;28;20180;-92
2022/04/20 03:59:26;;;;;;;21.63;13.97;;;;;;;3.66;80.76;94530.56;5021467;28;20653;-88
2022/04/20 04:01:51;;;;;;;30.67;16.63;;;;;;;3.49;81.68;94507.44;5005177;28;20172;-88
2022/04/20 04:04:20;;;;;;;35.17;19.23;;;;;;;3.14;81.50;94447.28;5003900;28;20177;-88
2022/04/20 04:06:46;;;;;;;33.60;18.93;;;;;;;3.40;81.83;94488.50;5003036;28;20195;-87
2022/04/20 04:09:12;;;;;;;31.30;17.93;;;;;;;3.23;81.55;94446.22;5022122;28;20215;-87
2022/04/20 04:11:38;;;;;;;27.17;14.50;;;;;;;3.85;81.19;94526.63;5026304;28;20638;-87
2022/04/20 04:14:03;;;;;;;32.63;16.27;;;;;;;3.44;80.49;94442.97;5017898;28;20176;-88
2022/04/20 04:16:29;;;;;;;32.13;16.40;;;;;;;3.61;80.54;94464.41;5035978;28;20246;-88
2022/04/20 04:18:55;;;;;;;40.90;17.77;;;;;;;3.40;80.61;94423.47;5035339;28;20244;-88
2022/04/20 04:21:21;;;;;;;35.90;17.93;;;;;;;3.49;80.67;94421.59;5031820;28;20179;-88
2022/04/20 04:23:47;;;;;;;27.47;16.73;;;;;;;3.72;80.52;94461.34;5006925;28;20174;-88
2022/04/20 04:26:13;;;;;;;32.50;17.20;;;;;;;4.02;80.33;94499.44;5001811;28;20200;-88
2022/04/20 04:28:40;;;;;;;19.27;9.87;;;;;;;4.06;80.53;94503.31;5025233;28;20672;-87
2022/04/20 04:31:06;;;;;;;28.53;14.17;;;;;;;3.66;79.54;94431.66;5007401;28;20168;-89
2022/04/20 04:33:34;;;;;;;24.13;14.50;;;;;;;3.48;80.13;94401.78;5013154;28;20178;-85
2022/04/20 04:36:00;;;;;;;17.67;10.30;;;;;;;4.20;80.33;94511.31;5007715;28;20251;-89
2022/04/20 04:38:26;;;;;;;23.27;12.00;;;;;;;4.27;79.85;94507.78;5031592;28;20654;-88
2022/04/20 04:40:53;;;;;;;25.07;14.60;;;;;;;4.18;79.36;94490.63;5041417;28;20176;-88
2022/04/20 04:43:18;;;;;;;30.77;17.17;;;;;;;3.77;79.94;94423.41;5030473;28;20176;-86
2022/04/20 04:48:36;;;;;;;42.83;23.00;;;;;;;3.95;79.86;94450.88;5027083;28;20179;-87
2022/04/20 04:51:03;;;;;;;40.83;21.10;;;;;;;4.37;80.21;94523.16;5009419;28;20174;-91
2022/04/20 04:53:29;;;;;;;28.57;17.93;;;;;;;4.29;80.33;94507.63;5028439;28;20582;-88
2022/04/20 04:55:55;;;;;;;27.30;15.00;;;;;;;4.48;79.52;94531.31;5010165;28;20676;-88
2022/04/20 04:58:20;;;;;;;26.30;12.93;;;;;;;4.01;79.07;94444.94;5017595;28;20180;-87
2022/04/20 05:00:46;;;;;;;32.73;14.40;;;;;;;4.36;79.29;94491.06;5035507;28;20191;-87
2022/04/20 05:03:14;;;;;;;29.30;15.47;;;;;;;4.07;79.07;94460.66;5035787;28;20187;-87
2022/04/20 05:05:41;;;;;;;23.07;15.47;;;;;;;4.09;78.76;94466.50;5035105;28;20184;-87
2022/04/20 05:08:07;;;;;;;28.50;15.60;;;;;;;4.01;78.14;94450.97;5016973;28;20172;-87
2022/04/20 05:10:33;;;;;;;29.77;15.47;;;;;;;4.19;78.71;94471.44;4997893;28;20191;-88
2022/04/20 05:13:00;;;;;;;28.47;15.43;;;;;;;4.18;78.78;94456.78;5018964;28;20183;-91
2022/04/20 05:15:26;;;;;;;30.80;15.00;;;;;;;4.73;78.66;94544.06;5020231;28;20259;-90
2022/04/20 05:17:52;;;;;;;25.07;13.13;;;;;;;4.45;78.48;94503.00;5025517;28;20693;-89
2022/04/20 05:20:19;;;;;;;25.70;12.63;;;;;;;4.43;78.64;94497.16;5006925;28;20266;-88
2022/04/20 05:22:45;;;;;;;24.30;13.50;;;;;;;4.83;78.20;94555.00;5030849;28;20187;-87
2022/04/20 05:25:11;;;;;;;24.73;13.90;;;;;;;4.73;78.82;94563.09;5034118;28;20187;-86
2022/04/20 05:27:37;;;;;;;20.93;12.17;;;;;;;4.18;78.67;94470.63;5016230;28;20179;-87
2022/04/20 05:30:07;;;;;;;22.00;11.60;;;;;;;4.50;78.52;94505.06;5034041;28;20163;-87
2022/04/20 05:32:33;;;;;;;15.33;10.23;;;;;;;4.82;78.61;94563.81;5016246;28;20173;-87
2022/04/20 05:34:58;;;;;;;13.70;9.43;;;;;;;4.44;78.95;94503.19;5016141;28;20171;-88
2022/04/20 05:42:53;;;;;;;20.90;12.17;;;;;;;4.38;78.57;94476.06;5034095;28;21029;-87
2022/04/20 05:45:19;;;;;;;19.87;11.27;;;;;;;4.96;78.54;94554.34;5033818;28;20200;-87
2022/04/20 05:47:45;;;;;;;21.23;12.63;;;;;;;4.65;78.29;94490.22;5033780;28;20175;-86
2022/04/20 05:50:11;;;;;;;20.33;12.23;;;;;;;4.81;78.46;94578.66;5034073;28;20160;-86
2022/04/20 05:52:37;;;;;;;20.00;14.23;;;;;;;4.24;80.01;94494.34;5033870;28;20179;-87
2022/04/20 05:55:03;;;;;;;20.83;13.87;;;;;;;4.62;80.17;94553.13;5016269;28;20168;-85
2022/04/20 05:57:29;;;;;;;18.63;11.07;;;;;;;4.36;79.00;94508.50;5011288;28;20200;-87
2022/04/20 05:59:54;;;;;;;24.00;11.83;;;;;;;4.22;79.68;94478.06;5020967;28;20646;-85
2022/04/20 06:02:19;;;;;;;25.20;14.77;;;;;;;4.41;80.13;94495.75;5010702;28;20164;-86
2022/04/20 06:04:45;;;;;;;28.20;17.00;;;;;;;4.21;79.95;94466.03;5022523;28;20187;-85
2022/04/20 06:07:11;;;;;;;23.67;14.73;;;;;;;4.68;80.35;94531.53;5033207;28;20190;-86
2022/04/20 06:09:36;;;;;;;44.10;29.50;;;;;;;4.74;79.94;94554.31;5033576;28;20222;-86
2022/04/20 06:12:02;;;;;;;48.20;32.03;;;;;;;4.81;80.31;94583.88;5035830;28;20600;-85
2022/04/20 06:14:28;;;;;;;46.90;31.40;;;;;;;4.80;80.68;94577.03;5015449;28;20160;-85
2022/04/20 06:16:54;;;;;;;56.80;34.10;;;;;;;4.26;81.08;94474.09;5015320;28;20551;-85
2022/04/20 06:19:19;;;;;;;49.33;32.30;;;;;;;4.80;81.41;94553.56;5033080;28;20536;-85
2022/04/20 06:21:45;;;;;;;39.30;25.50;;;;;;;4.84;80.93;94562.63;5033275;28;20163;-85
2022/04/20 06:24:10;;;;;;;49.90;29.10;;;;;;;4.94;81.39;94565.75;5032949;28;20170;-85
2022/04/20 06:26:35;;;;;;;66.87;39.20;;;;;;;4.38;82.51;94468.25;5033058;28;20187;-85
2022/04/20 06:29:01;;;;;;;75.60;47.00;;;;;;;4.70;82.59;94513.94;5032933;28;20190;-85
2022/04/20 06:31:26;;;;;;;70.40;43.70;;;;;;;4.71;82.81;94507.72;5033022;28;20634;-85
2022/04/20 06:33:57;;;;;;;54.13;35.17;;;;;;;4.76;82.43;94501.94;5014626;28;20552;-85
2022/04/20 06:36:24;;;;;;;36.00;21.70;;;;;;;5.11;81.89;94562.91;5032699;28;20175;-85
2022/04/20 06:38:49;;;;;;;45.50;28.33;;;;;;;4.73;81.66;94507.56;5008748;28;20168;-84
2022/04/20 06:41:15;;;;;;;55.10;34.70;;;;;;;4.91;81.77;94540.06;5022396;28;20177;-86
2022/04/20 06:43:40;;;;;;;24.13;15.17;;;;;;;4.47;81.14;94472.38;5021118;28;20176;-86
2022/04/20 06:46:06;;;;;;;51.83;28.67;;;;;;;4.81;82.10;94546.56;5023441;28;20583;-84
2022/04/20 06:48:31;;;;;;;47.27;29.97;;;;;;;4.71;82.23;94536.41;5023955;28;20176;-85
2022/04/20 06:50:57;;;;;;;37.03;24.23;;;;;;;4.42;82.93;94515.59;5006091;28;20254;-85
2022/04/20 06:58:50;;;;;;;35.47;22.33;;;;;;;3.68;86.33;94454.91;5023627;28;20717;-85
2022/04/20 07:01:16;;;;;;;35.10;21.67;;;;;;;3.96;86.12;94484.56;5018729;28;20262;-85
2022/04/20 07:03:42;;;;;;;43.97;23.37;;;;;;;4.18;85.74;94498.44;5018118;28;20165;-84
2022/04/20 07:06:08;;;;;;;43.67;24.00;;;;;;;4.14;85.58;94490.22;5018350;28;20279;-85
2022/04/20 07:08:34;;;;;;;31.77;20.43;;;;;;;4.50;85.54;94544.97;5021637;28;20712;-84
2022/04/20 07:11:00;;;;;;;33.80;20.50;;;;;;;4.17;85.99;94487.22;5003585;28;20172;-87
2022/04/20 07:13:26;;;;;;;48.80;27.40;;;;;;;4.39;86.77;94542.84;5004145;28;20248;-84
2022/04/20 07:15:51;;;;;;;51.60;33.07;;;;;;;4.51;87.17;94557.00;5005789;28;20214;-85
2022/04/20 07:18:17;;;;;;;43.30;26.17;;;;;;;4.81;87.12;94575.22;5019642;28;20179;-85
2022/04/20 07:20:43;;;;;;;42.17;25.20;;;;;;;4.50;86.26;94507.66;5023780;28;20541;-86
2022/04/20 07:23:10;;;;;;;38.70;21.67;;;;;;;5.10;85.66;94575.16;5013880;28;20227;-85
2022/04/20 07:25:36;;;;;;;31.67;17.13;;;;;;;5.23;84.94;94584.94;5023657;28;20200;-86
2022/04/20 07:28:03;;;;;;;25.13;15.97;;;;;;;5.10;85.36;94541.25;5024728;28;20194;-86
2022/04/20 07:30:29;;;;;;;24.77;14.37;;;;;;;4.93;84.32;94491.13;5005517;28;20171;-85
2022/04/20 07:32:54;;;;;;;24.00;14.60;;;;;;;5.45;83.65;94567.50;4999445;28;20173;-84
2022/04/20 07:35:20;;;;;;;19.73;13.80;;;;;;;5.48;83.18;94561.88;5012317;28;20657;-84
2022/04/20 07:37:45;;;;;;;29.33;16.37;;;;;;;5.48;81.94;94551.44;5012139;28;20175;-85
2022/04/20 07:40:14;;;;;;;25.03;14.23;;;;;;;5.44;81.72;94551.03;5003761;28;20164;-85
2022/04/20 07:42:41;;;;;;;25.73;15.10;;;;;;;5.02;81.46;94493.59;5020133;28;20183;-86
2022/04/20 07:45:07;;;;;;;22.23;13.97;;;;;;;5.06;81.18;94500.06;5026008;28;20286;-86
2022/04/20 07:47:33;;;;;;;22.73;13.70;;;;;;;5.39;82.43;94555.19;5017621;28;20178;-85
2022/04/20 07:52:45;;;;;;;24.53;15.60;;;;;;;5.44;83.29;94564.09;5035825;28;20241;-85
2022/04/20 07:55:17;;;;;;;29.37;20.33;;;;;;;5.14;81.71;94513.00;5035615;28;20149;-85
2022/04/20 07:57:43;;;;;;;36.03;23.07;;;;;;;5.33;82.25;94551.53;5008540;28;20172;-89
2022/04/20 08:00:11;;;;;;;40.97;23.93;;;;;;;5.16;82.51;94524.06;5005317;28;20709;-84
2022/04/20 08:02:37;;;;;;;42.93;23.60;;;;;;;5.04;82.53;94509.88;5025508;28;20247;-85
2022/04/20 08:05:03;;;;;;;40.90;23.23;;;;;;;5.24;82.87;94542.19;5019491;28;20203;-86
2022/04/20 08:07:34;;;;;;;38.37;23.60;;;;;;;4.72;82.80;94465.03;5016696;28;20206;-85
2022/04/20 08:10:01;;;;;;;48.13;24.97;;;;;;;5.21;82.77;94543.38;5024583;28;20212;-85
2022/04/20 08:12:29;;;;;;;89.40;49.67;;;;;;;4.84;82.89;94483.63;5023314;28;20258;-87
2022/04/20 08:14:55;;;;;;;106.87;56.73;;;;;;;4.29;82.94;94391.19;5022376;28;20242;-89
2022/04/20 08:17:21;;;;;;;101.23;52.77;;;;;;;4.89;83.00;94492.50;5023583;28;20619;-85
2022/04/20 08:19:46;;;;;;;63.60;36.63;;;;;;;4.87;83.25;94478.81;5006113;28;20177;-85
2022/04/20 08:22:14;;;;;;;58.47;35.63;;;;;;;4.92;83.27;94481.69;5005682;28;20218;-85
2022/04/20 08:24:43;;;;;;;54.67;34.40;;;;;;;5.30;83.63;94531.81;5024639;28;20196;-84
2022/04/20 08:27:09;;;;;;;57.00;34.80;;;;;;;4.92;83.68;94452.22;5020932;28;20176;-85
2022/04/20 08:29:35;;;;;;;58.70;33.07;;;;;;;4.90;83.09;94436.75;5023163;28;20172;-87
2022/04/20 08:32:00;;;;;;;56.77;32.17;;;;;;;4.77;82.29;94428.78;5006348;28;20215;-87
2022/04/20 08:34:26;;;;;;;47.50;27.27;;;;;;;4.91;82.90;94461.03;5025441;28;20172;-86
2022/04/20 08:36:51;;;;;;;42.00;24.37;;;;;;;4.66;84.20;94465.78;5005935;28;20180;-87
2022/04/20 08:39:16;;;;;;;41.53;26.27;;;;;;;4.67;84.50;94440.53;5020291;28;20180;-86
2022/04/20 08:41:49;;;;;;;35.30;22.27;;;;;;;4.61;83.59;94438.63;5001640;28;20552;-88
2022/04/20 08:44:19;;;;;;;35.60;21.00;;;;;;;4.91;84.22;94463.63;5009692;28;20183;-87
2022/04/20 08:46:45;;;;;;;32.80;20.23;;;;;;;4.76;84.02;94450.63;5028832;28;20205;-90
2022/04/20 08:49:11;;;;;;;33.23;16.80;;;;;;;4.72;84.33;94433.75;5021641;28;20208;-88
2022/04/20 08:54:21;;;;;;;25.10;15.83;;;;;;;5.14;83.99;94490.31;5023111;28;20968;-85
2022/04/20 08:59:35;;;;;;;26.13;16.47;;;;;;;5.00;84.93;94453.88;5025070;28;20719;-87
2022/04/20 09:02:03;;;;;;;25.93;16.00;;;;;;;4.94;86.01;94427.53;5024388;28;20188;-85
2022/04/20 09:04:28;;;;;;;24.07;16.53;;;;;;;5.15;85.50;94434.56;5021628;28;20183;-86
2022/04/20 09:06:54;;;;;;;29.87;17.70;;;;;;;5.55;85.67;94481.84;5023969;28;20257;-85
2022/04/20 09:09:20;;;;;;;28.97;17.13;;;;;;;5.62;86.26;94472.28;5023770;28;20708;-85
2022/04/20 09:11:48;;;;;;;24.27;16.33;;;;;;;5.31;85.86;94413.41;5022248;28;20168;-85
2022/04/20 09:14:14;;;;;;;25.23;15.70;;;;;;;5.80;85.07;94469.16;5026411;28;20164;-86
2022/04/20 09:16:41;;;;;;;26.13;16.27;;;;;;;5.65;84.97;94419.66;5002965;28;20160;-85
2022/04/20 09:19:07;;;;;;;24.20;15.43;;;;;;;5.77;84.84;94425.16;5018297;28;20214;-85
2022/04/20 09:21:35;;;;;;;19.93;13.47;;;;;;;5.90;83.54;94438.31;5006204;28;20216;-85
2022/04/20 09:24:06;;;;;;;18.67;11.73;;;;;;;5.97;83.71;94449.59;5026137;28;20177;-86
2022/04/20 09:26:31;;;;;;;19.40;11.33;;;;;;;5.56;83.75;94397.31;5026873;28;20221;-83
2022/04/20 09:29:07;;;;;;;16.83;10.97;;;;;;;5.48;84.43;94395.66;5020757;28;20255;-87
2022/04/20 09:31:55;;;;;;;17.93;10.50;;;;;;;5.65;85.44;94435.31;5026629;28;20167;-85
2022/04/20 09:34:57;;;;;;;16.90;11.33;;;;;;;5.83;85.22;94450.50;5025823;28;20251;-85
2022/04/20 09:37:22;;;;;;;14.37;9.17;;;;;;;5.87;85.62;94418.59;5022533;28;20179;-83
2022/04/20 09:39:52;;;;;;;15.50;9.90;;;;;;;6.09;83.31;94447.28;5004266;28;20164;-84
2022/04/20 09:42:19;;;;;;;14.07;9.17;;;;;;;5.59;83.17;94379.47;5023675;28;21017;-84
2022/04/20 09:45:00;;;;;;;13.87;9.20;;;;;;;5.95;84.25;94431.53;5025172;28;20179;-85
2022/04/20 09:50:34;;;;;;;13.73;9.73;;;;;;;5.98;84.49;94440.78;5024765;28;20665;-83
2022/04/20 09:53:06;;;;;;;16.10;10.07;;;;;;;5.88;83.96;94422.06;5024949;28;20251;-84
2022/04/20 09:55:36;;;;;;;17.80;10.17;;;;;;;5.85;84.96;94404.94;5023077;28;20172;-83
2022/04/20 09:58:24;;;;;;;14.43;9.33;;;;;;;5.99;84.40;94426.72;5022565;28;20179;-87
2022/04/20 10:00:51;;;;;;;16.80;10.47;;;;;;;5.93;85.12;94427.50;5022315;28;20183;-83
2022/04/20 10:03:32;;;;;;;25.03;13.80;;;;;;;5.67;85.65;94388.94;5023553;28;20176;-84
2022/04/20 10:05:59;;;;;;;16.47;10.73;;;;;;;6.04;85.87;94429.56;5021658;28;20216;-85
2022/04/20 10:08:25;;;;;;;14.47;10.17;;;;;;;6.04;85.68;94426.97;5020365;28;20664;-90
2022/04/20 10:10:53;;;;;;;17.00;11.03;;;;;;;5.65;86.82;94383.91;5021413;28;20194;-85
2022/04/20 10:13:19;;;;;;;18.30;10.40;;;;;;;5.58;86.47;94356.97;5014114;28;20160;-84
2022/04/20 10:18:33;;;;;;;14.23;9.23;;;;;;;6.15;85.72;94410.72;5021525;28;20215;-83
2022/04/20 10:21:01;;;;;;;24.93;10.77;;;;;;;6.30;85.82;94418.44;5026442;28;20227;-83
2022/04/20 10:23:30;;;;;;;17.40;11.00;;;;;;;6.37;84.97;94409.63;5020196;28;20259;-83
2022/04/20 10:25:58;;;;;;;18.23;11.07;;;;;;;6.27;84.54;94369.16;5023053;28;20196;-83
2022/04/20 10:28:49;;;;;;;17.20;10.60;;;;;;;6.38;85.53;94390.31;5024027;28;20171;-83
2022/04/20 10:31:42;;;;;;;14.93;9.07;;;;;;;6.32;85.82;94392.88;5024513;28;20176;-84
2022/04/20 10:34:13;;;;;;;25.93;15.33;;;;;;;6.00;86.49;94345.53;5021387;28;20171;-83
2022/04/20 10:36:39;;;;;;;45.10;27.37;;;;;;;5.76;88.56;94335.56;4996150;28;20160;-83
2022/04/20 10:39:19;;;;;;;75.77;42.00;;;;;;;6.05;89.39;94384.16;5013152;28;20176;-84
2022/04/20 10:42:11;;;;;;;78.97;43.87;;;;;;;6.11;90.04;94366.88;4995342;28;20670;-83
2022/04/20 10:45:10;;;;;;;78.40;43.67;;;;;;;6.25;90.18;94374.56;4982500;28;20187;-83
2022/04/20 10:47:38;;;;;;;91.87;46.30;;;;;;;6.40;90.17;94372.59;4995044;28;20196;-83
2022/04/20 10:50:23;;;;;;;85.13;44.30;;;;;;;6.52;89.96;94372.03;5012886;28;20149;-82
2022/04/20 10:52:57;;;;;;;73.47;41.33;;;;;;;6.51;89.25;94362.59;5022597;28;20168;-83
2022/04/20 10:55:31;;;;;;;70.67;37.03;;;;;;;6.40;89.05;94343.84;5006545;28;20253;-83
2022/04/20 10:58:01;;;;;;;57.87;32.23;;;;;;;6.15;88.74;94345.38;5004396;28;20179;-83
2022/04/20 11:00:33;;;;;;;62.77;37.60;;;;;;;6.12;89.75;94358.06;5013112;28;20181;-83
2022/04/20 11:03:06;;;;;;;61.63;35.43;;;;;;;6.20;89.97;94369.13;5032887;28;20155;-83
2022/04/20 11:05:33;;;;;;;45.77;25.07;;;;;;;6.11;89.99;94331.13;5032185;28;20194;-83
2022/04/20 11:08:14;;;;;;;53.53;30.17;;;;;;;6.47;89.82;94371.84;5032186;28;20199;-84
2022/04/20 11:10:42;;;;;;;54.33;29.87;;;;;;;6.49;89.44;94359.38;5032932;28;20170;-83
2022/04/20 11:19:05;;;;;;;45.83;24.27;;;;;;;6.72;88.75;94380.75;5032441;28;21111;-83
2022/04/20 11:21:31;;;;;;;42.83;24.70;;;;;;;6.76;88.27;94380.13;5032264;28;20155;-84
2022/04/20 11:24:07;;;;;;;48.17;26.93;;;;;;;6.74;87.80;94379.53;5032077;28;20164;-83
2022/04/20 11:26:48;;;;;;;43.90;26.90;;;;;;;6.69;87.84;94378.50;5031703;28;20287;-83
2022/04/20 11:29:17;;;;;;;39.33;24.47;;;;;;;6.34;87.30;94341.22;5014414;28;20175;-83
2022/04/20 11:31:48;;;;;;;48.93;26.50;;;;;;;6.59;87.53;94391.97;5020984;28;20172;-83
2022/04/20 11:34:16;;;;;;;50.63;29.23;;;;;;;6.62;87.41;94375.09;4996108;28;20168;-83
2022/04/20 11:36:44;;;;;;;52.90;30.53;;;;;;;6.54;87.47;94370.03;5014308;28;20241;-84
2022/04/20 11:39:15;;;;;;;48.97;28.37;;;;;;;6.45;87.78;94364.19;5032047;28;20195;-83
2022/04/20 11:41:45;;;;;;;39.43;22.27;;;;;;;6.15;87.34;94328.91;5032015;28;20625;-84
2022/04/20 11:44:21;;;;;;;37.27;23.27;;;;;;;6.15;87.13;94329.72;5032052;28;20152;-84
2022/04/20 11:46:48;;;;;;;44.47;24.57;;;;;;;6.47;87.25;94374.44;5032302;28;20207;-82
2022/04/20 11:49:13;;;;;;;40.87;22.57;;;;;;;6.01;86.65;94305.38;5031903;28;20176;-83
2022/04/20 11:51:44;;;;;;;41.00;24.67;;;;;;;6.46;86.30;94376.25;5031855;28;20183;-83
2022/04/20 11:54:10;;;;;;;44.20;24.63;;;;;;;6.28;86.29;94363.75;5031762;28;20167;-84
2022/04/20 11:56:40;;;;;;;43.00;26.00;;;;;;;6.32;86.11;94378.00;5026167;28;20176;-83
2022/04/20 11:59:08;;;;;;;46.43;29.00;;;;;;;6.16;86.44;94359.25;5022651;28;20659;-86
2022/04/20 12:01:36;;;;;;;54.57;29.63;;;;;;;6.11;86.08;94383.38;5022082;28;20229;-84
2022/04/20 12:04:13;;;;;;;50.33;26.50;;;;;;;5.85;86.22;94372.78;5021184;28;20721;-86